Flight Track Log - Related Links

Times and Time Zones

All times are in EDT time to prevent confusion due to time zone crossing. See the N839CA flight status page for this flight to view local times or setup timezone preferences in your user account.

Time Position Orientation Groundspeed Altitude Reporting Facility
EDT Latitude Longitude Course Direction KTS MPH feet Rate Location/Type
Mon 11:10:00 PM 41.0186 -74.6157 314° West  Level Estimated
Mon 11:11:00 PM 41.0650 -74.6800 314° West  Level Estimated
Mon 11:12:00 PM 41.1114 -74.7443 314° West  Level Estimated
Mon 11:13:00 PM 41.1578 -74.8087 314° West  Level Estimated
Mon 11:14:00 PM 41.2041 -74.8732 314° West  Level Estimated
Mon 11:15:00 PM 41.2504 -74.9378 314° West  Level Estimated
Mon 11:16:00 PM 41.2967 -75.0025 314° West  Level Estimated
Mon 11:17:00 PM 41.3429 -75.0672 314° West  Level Estimated
Mon 11:18:00 PM 41.3891 -75.1321 314° West  Level Estimated
Mon 11:19:00 PM 41.4352 -75.1971 313° West  Level Estimated
Mon 11:20:00 PM 41.4813 -75.2621 313° West  Level Estimated
Mon 11:21:00 PM 41.5274 -75.3272 313° West  Level Estimated
Mon 11:22:00 PM 41.5734 -75.3925 313° West  Level Estimated
Mon 11:23:00 PM 41.6194 -75.4578 313° West  Level Estimated
Mon 11:24:00 PM 41.6654 -75.5232 313° West  Level Estimated
Mon 11:25:00 PM 41.7113 -75.5888 313° West  Level Estimated
Mon 11:26:00 PM 41.7572 -75.6544 313° West  Level Estimated
Mon 11:27:00 PM 41.8031 -75.7201 313° West  Level Estimated
Mon 11:28:00 PM 41.8489 -75.7859 313° West  Level Estimated
Mon 11:29:00 PM 41.8947 -75.8518 313° West  Level Estimated
Mon 11:30:00 PM 41.9404 -75.9177 313° West  Level Estimated
Mon 11:31:00 PM 41.9861 -75.9838 313° West  Level Estimated
Mon 11:32:00 PM 42.0318 -76.0500 313° West  Level Estimated
Mon 11:33:00 PM 42.0774 -76.1163 313° West  Level Estimated
Mon 11:34:00 PM 42.1230 -76.1826 313° West  Level Estimated
Mon 11:35:00 PM 42.1686 -76.2491 313° West  Level Estimated
Mon 11:36:00 PM 42.2141 -76.3157 313° West  Level Estimated
Mon 11:37:00 PM 42.2595 -76.3823 313° West  Level Estimated
Mon 11:38:00 PM 42.3050 -76.4491 313° West  Level Estimated
Mon 11:39:00 PM 42.3504 -76.5159 313° West  Level Estimated
Mon 11:40:00 PM 42.3957 -76.5828 313° West  Level Estimated
Mon 11:41:00 PM 42.4411 -76.6499 313° West  Level Estimated
Mon 11:42:00 PM 42.4864 -76.7170 312° West  Level Estimated
Mon 11:43:00 PM 42.5316 -76.7842 312° West  Level Estimated
Mon 11:44:00 PM 42.5768 -76.8516 312° West  Level Estimated
Mon 11:45:00 PM 42.6219 -76.9190 312° West  Level Estimated
Mon 11:46:00 PM 42.6671 -76.9865 312° West  Level Estimated
Mon 11:47:00 PM 42.7122 -77.0541 312° West  Level Estimated
Mon 11:48:00 PM 42.7572 -77.1219 312° West  Level Estimated
Mon 11:49:00 PM 42.8022 -77.1897 312° West  Level Estimated
Mon 11:50:00 PM 42.8471 -77.2576 312° West  Level Estimated
Mon 11:51:00 PM 42.8921 -77.3256 312° West  Level Estimated
Mon 11:52:00 PM 42.9370 -77.3937 312° West  Level Estimated
Mon 11:53:00 PM 42.9818 -77.4619 312° West  Level Estimated
Mon 11:54:00 PM 43.0266 -77.5303 312° West  Level Estimated
Mon 11:55:00 PM 43.0714 -77.5987 312° West  Level Estimated
Mon 11:56:00 PM 43.1161 -77.6672 312° West  Level Estimated
Mon 11:57:00 PM 43.1191 -77.6719 312° West  Level Estimated
Mon 11:58:00 PM 43.1191 -77.6719 14° North  Level Estimated
Mon 11:59:00 PM 43.1191 -77.6719 14° North  Level Estimated
Tue 12:00:00 AM 43.1191 -77.6719 14° North  Level Estimated
Tue 12:01:00 AM 43.1191 -77.6719 14° North  Level Estimated
Tue 12:02:00 AM 43.1191 -77.6719 14° North  Level Estimated
Tue 12:03:00 AM 43.1191 -77.6719 14° North  Level Estimated
Tue 12:04:00 AM 43.1191 -77.6719 14° North  Level Estimated
Tue 12:05:00 AM 43.1191 -77.6719 14° North  Level Estimated
Tue 12:06:00 AM 43.1191 -77.6719 14° North  Level Estimated
Tue 12:07:00 AM 43.1191 -77.6719 14° North  Level Estimated
Tue 12:08:00 AM 43.1191 -77.6719 14° North  Level Estimated
Tue 12:09:00 AM 43.1191 -77.6719 14° North  Level Estimated
Tue 12:10:00 AM 43.1191 -77.6719 14° North  Level Estimated
Tue 12:11:00 AM 43.1191 -77.6719 14° North  Level Estimated
Tue 12:12:00 AM 43.1191 -77.6719 14° North  Level Estimated

Login

Don't have an account? Register now (free) for customized features, flight alerts, and more!